createdAt,value
2022-11-21T00:02:38.948Z,11.10
2022-11-21T00:05:46.020Z,11.20
2022-11-21T00:08:53.453Z,10.90
2022-11-21T00:12:00.532Z,11.40
2022-11-21T00:15:07.356Z,10.80
2022-11-21T00:18:14.223Z,11.20
2022-11-21T00:21:21.170Z,11.80
2022-11-21T00:24:28.374Z,12.00
2022-11-21T00:27:35.853Z,12.70
2022-11-21T00:30:42.414Z,12.70
2022-11-21T00:33:49.526Z,13.00
2022-11-21T00:36:56.774Z,12.40
2022-11-21T00:40:03.384Z,13.50
2022-11-21T00:43:10.535Z,13.60
2022-11-21T00:46:17.936Z,13.80
2022-11-21T00:49:24.575Z,13.90
2022-11-21T00:52:31.665Z,14.00
2022-11-21T00:55:38.765Z,14.30
2022-11-21T00:58:45.612Z,14.90
2022-11-21T01:01:52.907Z,14.60
2022-11-21T01:04:59.916Z,15.60
2022-11-21T01:08:06.936Z,15.20
2022-11-21T01:11:14.358Z,14.90
2022-11-21T01:14:21.398Z,15.90
2022-11-21T01:17:28.419Z,16.40
2022-11-21T01:20:35.798Z,15.50
2022-11-21T01:23:42.693Z,15.40
2022-11-21T01:26:50.020Z,16.70
2022-11-21T01:29:57.210Z,16.10
2022-11-21T01:33:04.829Z,15.30
2022-11-21T01:36:11.559Z,16.00
2022-11-21T01:39:18.906Z,17.40
2022-11-21T01:42:26.042Z,16.90
2022-11-21T01:45:33.360Z,16.30
2022-11-21T01:48:40.783Z,16.10
2022-11-21T01:51:48.350Z,16.90
2022-11-21T01:54:55.093Z,16.60
2022-11-21T01:58:02.788Z,16.40
2022-11-21T02:01:09.532Z,17.00
2022-11-21T02:04:17.042Z,16.30
2022-11-21T02:07:24.082Z,16.30
2022-11-21T02:10:31.482Z,17.10
2022-11-21T02:13:38.795Z,17.10
2022-11-21T02:16:46.203Z,17.10
2022-11-21T02:19:53.414Z,17.40
2022-11-21T02:23:00.634Z,16.80
2022-11-21T02:26:07.473Z,16.40
2022-11-21T02:29:15.475Z,17.70
2022-11-21T02:32:22.354Z,17.50
2022-11-21T02:35:29.941Z,18.00
2022-11-21T02:38:37.183Z,18.80
2022-11-21T02:41:44.424Z,17.70
2022-11-21T02:44:51.535Z,17.80
2022-11-21T02:48:03.641Z,16.90
2022-11-21T02:51:00.377Z,16.90
2022-11-21T02:54:08.017Z,17.40
2022-11-21T02:57:14.827Z,17.40
2022-11-21T03:00:22.686Z,18.00
2022-11-21T03:03:29.877Z,16.70
2022-11-21T03:06:36.967Z,15.90
2022-11-21T03:09:44.008Z,15.90
2022-11-21T03:12:51.163Z,16.30
2022-11-21T03:15:58.389Z,16.90
2022-11-21T03:19:05.974Z,17.00
2022-11-21T03:22:13.320Z,16.40
2022-11-21T03:25:20.679Z,18.30
2022-11-21T03:28:28.318Z,18.70
2022-11-21T03:31:35.119Z,19.70
2022-11-21T03:34:42.880Z,19.70
2022-11-21T03:37:49.617Z,21.00
2022-11-21T03:40:57.080Z,19.60
2022-11-21T03:44:04.230Z,19.70
2022-11-21T03:47:11.481Z,20.40
2022-11-21T03:50:18.631Z,20.40
2022-11-21T03:53:26.113Z,21.40
2022-11-21T03:56:32.854Z,19.70
2022-11-21T03:59:40.562Z,19.90
2022-11-21T04:02:47.303Z,18.90
2022-11-21T04:05:54.782Z,18.80
2022-11-21T04:09:01.852Z,20.40
2022-11-21T04:12:09.099Z,18.80
2022-11-21T04:15:16.063Z,19.20
2022-11-21T04:18:23.417Z,19.10
2022-11-21T04:21:30.133Z,18.90
2022-11-21T04:24:37.774Z,19.60
2022-11-21T04:27:44.506Z,18.70
2022-11-21T04:30:54.848Z,18.50
2022-11-21T04:33:51.614Z,18.00
2022-11-21T04:36:58.820Z,18.50
2022-11-21T04:40:05.981Z,19.10
2022-11-21T04:43:13.194Z,19.20
2022-11-21T04:46:20.396Z,19.00
2022-11-21T04:49:27.919Z,19.50
2022-11-21T04:52:34.588Z,18.80
2022-11-21T04:55:41.868Z,19.30
2022-11-21T04:58:48.895Z,18.80
2022-11-21T05:01:56.068Z,19.30
2022-11-21T05:05:03.250Z,19.70
2022-11-21T05:08:10.408Z,19.00
2022-11-21T05:11:17.768Z,18.70
2022-11-21T05:14:25.486Z,19.00
2022-11-21T05:17:32.388Z,19.00
2022-11-21T05:20:39.868Z,18.90
2022-11-21T05:23:46.565Z,18.30
2022-11-21T05:26:54.029Z,17.90
2022-11-21T05:30:01.214Z,18.40
2022-11-21T05:33:08.387Z,17.60
2022-11-21T05:36:15.621Z,18.00
2022-11-21T05:39:22.852Z,18.80
2022-11-21T05:42:29.571Z,18.50
2022-11-21T05:45:37.224Z,17.80
2022-11-21T05:48:43.912Z,19.00
2022-11-21T05:51:51.428Z,18.90
2022-11-21T05:54:58.431Z,19.50
2022-11-21T05:58:05.711Z,19.20
2022-11-21T06:01:12.462Z,20.60
2022-11-21T06:04:19.742Z,20.90
2022-11-21T06:07:27.102Z,21.50
2022-11-21T06:10:34.652Z,22.10
2022-11-21T06:13:41.514Z,22.60
2022-11-21T06:16:49.464Z,22.70
2022-11-21T06:19:56.246Z,21.70
2022-11-21T06:23:03.734Z,22.70
2022-11-21T06:26:11.072Z,22.90
2022-11-21T06:29:18.387Z,21.40
2022-11-21T06:32:25.594Z,22.10
2022-11-21T06:35:32.839Z,21.80
2022-11-21T06:38:39.934Z,23.10
2022-11-21T06:41:47.325Z,23.80
2022-11-21T06:44:54.156Z,23.70
2022-11-21T06:48:01.685Z,24.20
2022-11-21T06:51:08.396Z,24.40
2022-11-21T06:54:28.635Z,22.80
2022-11-21T06:57:21.008Z,23.70
2022-11-21T07:00:28.084Z,22.50
2022-11-21T07:03:35.095Z,21.30
2022-11-21T07:06:42.628Z,19.50
2022-11-21T07:09:49.673Z,20.40
2022-11-21T07:12:57.546Z,19.30
2022-11-21T07:16:04.367Z,20.10
2022-11-21T07:19:11.998Z,21.10
2022-11-21T07:22:19.088Z,20.40
2022-11-21T07:25:26.225Z,19.60
2022-11-21T07:28:33.500Z,20.20
2022-11-21T07:31:40.669Z,21.50
2022-11-21T07:34:47.859Z,21.90
2022-11-21T07:37:55.638Z,21.20
2022-11-21T07:41:02.389Z,22.60
2022-11-21T07:44:09.899Z,21.60
2022-11-21T07:47:17.182Z,23.10
2022-11-21T07:50:24.479Z,25.00
2022-11-21T07:53:31.775Z,24.90
2022-11-21T07:56:38.881Z,25.00
2022-11-21T07:59:46.267Z,24.90
2022-11-21T08:02:54.158Z,24.40
2022-11-21T08:06:00.840Z,25.60
2022-11-21T08:09:08.771Z,26.10
2022-11-21T08:12:15.520Z,25.10
2022-11-21T08:15:24.155Z,24.00
2022-11-21T08:18:32.552Z,24.10
2022-11-21T08:21:39.509Z,24.40
2022-11-21T08:24:46.845Z,24.50
2022-11-21T08:27:54.132Z,24.80
2022-11-21T08:31:01.314Z,24.70
2022-11-21T08:34:14.134Z,25.20
2022-11-21T08:37:10.411Z,24.00
2022-11-21T08:40:17.863Z,25.10
2022-11-21T08:43:24.557Z,23.30
2022-11-21T08:46:32.101Z,21.40
2022-11-21T08:49:39.248Z,20.10
2022-11-21T08:52:46.373Z,20.90
2022-11-21T08:55:53.855Z,19.40
2022-11-21T08:59:00.766Z,18.40
2022-11-21T09:02:07.984Z,18.60
2022-11-21T09:05:15.137Z,18.50
2022-11-21T09:08:23.206Z,19.10
2022-11-21T09:11:30.397Z,18.40
2022-11-21T09:14:37.966Z,18.70
2022-11-21T09:17:44.709Z,18.70
2022-11-21T09:20:52.237Z,17.70
2022-11-21T09:23:58.887Z,17.20
2022-11-21T09:27:06.444Z,17.10
2022-11-21T09:30:13.732Z,16.60
2022-11-21T09:33:20.828Z,16.70
2022-11-21T09:36:28.350Z,17.00
2022-11-21T09:39:35.267Z,16.30
2022-11-21T09:42:42.763Z,17.40
2022-11-21T09:45:49.878Z,17.00
2022-11-21T09:48:56.900Z,17.30
2022-11-21T09:52:04.307Z,19.70
2022-11-21T09:55:11.018Z,21.20
2022-11-21T09:58:18.396Z,18.80
2022-11-21T10:01:25.855Z,20.20
2022-11-21T10:04:32.540Z,20.20
2022-11-21T10:07:40.010Z,22.00
2022-11-21T10:10:47.410Z,21.00
2022-11-21T10:13:54.159Z,19.60
2022-11-21T10:17:01.550Z,18.40
2022-11-21T10:20:08.750Z,16.80
2022-11-21T10:23:16.070Z,17.00
2022-11-21T10:26:23.670Z,15.40
2022-11-21T10:29:30.907Z,17.50
2022-11-21T10:32:38.306Z,16.40
2022-11-21T10:35:45.584Z,16.20
2022-11-21T10:38:52.883Z,14.50
2022-11-21T10:42:00.302Z,12.60
2022-11-21T10:45:07.613Z,13.30
2022-11-21T10:48:14.982Z,11.80
2022-11-21T10:51:22.453Z,10.80
2022-11-21T10:54:29.938Z,10.60
2022-11-21T10:57:37.653Z,9.70
2022-11-21T11:00:44.963Z,9.70
2022-11-21T11:04:20.880Z,8.90
2022-11-21T11:06:57.067Z,9.70
2022-11-21T11:10:04.114Z,10.50
2022-11-21T11:16:16.203Z,9.20
2022-11-21T11:19:31.635Z,9.80
2022-11-21T11:22:28.385Z,10.40
2022-11-21T11:25:35.273Z,10.70
2022-11-21T11:28:42.760Z,10.30
2022-11-21T11:31:50.526Z,10.50
2022-11-21T11:34:57.377Z,10.30
2022-11-21T11:38:04.977Z,10.60
2022-11-21T11:41:12.485Z,9.90
2022-11-21T11:44:19.879Z,9.50
2022-11-21T11:47:27.448Z,9.40
2022-11-21T11:50:34.709Z,8.80
2022-11-21T11:53:42.100Z,8.60
2022-11-21T11:56:49.296Z,9.60
2022-11-21T11:59:56.602Z,15.10
2022-11-21T12:03:04.290Z,8.80
2022-11-21T12:06:11.332Z,8.20
2022-11-21T12:09:18.706Z,8.30
2022-11-21T12:12:26.283Z,7.10
2022-11-21T12:15:33.337Z,7.40
2022-11-21T12:18:41.290Z,7.80
2022-11-21T12:21:48.921Z,7.50
2022-11-21T12:24:55.852Z,7.40
2022-11-21T12:28:03.332Z,6.90
2022-11-21T12:31:10.603Z,7.10
2022-11-21T12:34:18.023Z,7.70
2022-11-21T12:37:25.671Z,7.80
2022-11-21T12:40:32.803Z,7.50
2022-11-21T12:43:40.055Z,7.90
2022-11-21T12:46:47.315Z,8.70
2022-11-21T12:49:55.100Z,8.20
2022-11-21T12:53:02.522Z,8.50
2022-11-21T12:56:09.975Z,8.20
2022-11-21T12:59:17.735Z,9.80
2022-11-21T13:02:24.657Z,9.50
2022-11-21T13:05:32.198Z,9.70
2022-11-21T13:08:39.787Z,10.10
2022-11-21T13:11:46.717Z,10.10
2022-11-21T13:14:54.187Z,10.20
2022-11-21T13:18:01.498Z,11.90
2022-11-21T13:21:08.856Z,11.50
2022-11-21T13:24:16.699Z,11.90
2022-11-21T13:27:23.622Z,11.70
2022-11-21T13:30:31.208Z,11.40
2022-11-21T13:33:39.039Z,12.10
2022-11-21T13:36:45.921Z,11.40
2022-11-21T13:39:53.650Z,11.00
2022-11-21T13:43:30.846Z,11.70
2022-11-21T13:46:05.590Z,11.00
2022-11-21T13:49:13.241Z,10.80
2022-11-21T13:52:20.310Z,9.40
2022-11-21T13:55:27.453Z,8.80
2022-11-21T13:58:34.822Z,8.00
2022-11-21T14:01:41.796Z,8.80
2022-11-21T14:04:48.692Z,8.30
2022-11-21T14:07:55.838Z,9.30
2022-11-21T14:11:03.524Z,8.80
2022-11-21T14:14:10.634Z,9.40
2022-11-21T14:17:17.773Z,9.50
2022-11-21T14:20:25.231Z,10.00
2022-11-21T14:23:32.217Z,9.80
2022-11-21T14:26:39.328Z,9.40
2022-11-21T14:29:47.055Z,9.80
2022-11-21T14:32:54.617Z,9.60
2022-11-21T14:36:02.262Z,8.50
2022-11-21T14:42:13.806Z,9.10
2022-11-21T14:45:21.377Z,8.60
2022-11-21T14:48:28.918Z,9.70
2022-11-21T14:51:35.507Z,10.00
2022-11-21T14:55:00.023Z,10.00
2022-11-21T14:57:47.449Z,10.60
2022-11-21T15:01:02.314Z,10.70
2022-11-21T15:03:58.611Z,11.70
2022-11-21T15:07:05.767Z,11.20
2022-11-21T15:10:30.196Z,10.50
2022-11-21T15:13:17.279Z,11.30
2022-11-21T15:16:24.920Z,11.50
2022-11-21T15:19:32.093Z,10.70
2022-11-21T15:22:39.434Z,11.60
2022-11-21T15:28:50.881Z,10.20
2022-11-21T15:31:58.522Z,10.40
2022-11-21T15:35:06.072Z,10.60
2022-11-21T15:38:12.790Z,10.80
2022-11-21T15:41:20.272Z,9.80
2022-11-21T15:44:27.980Z,11.30
2022-11-21T15:47:34.893Z,10.50
2022-11-21T15:50:42.183Z,9.90
2022-11-21T15:53:49.326Z,10.40
2022-11-21T15:56:56.306Z,9.80
2022-11-21T15:57:13.114Z,11.60
2022-11-21T16:00:03.782Z,9.10
2022-11-21T16:03:10.493Z,9.60
2022-11-21T16:06:17.834Z,10.20
2022-11-21T16:09:24.873Z,9.80
2022-11-21T16:12:32.004Z,9.40
2022-11-21T16:15:39.659Z,10.60
2022-11-21T16:18:47.035Z,11.20
2022-11-21T16:21:54.129Z,10.10
2022-11-21T16:25:01.876Z,12.90
2022-11-21T16:28:08.935Z,9.90
2022-11-21T16:31:16.045Z,8.90
2022-11-21T16:34:23.095Z,9.60
2022-11-21T16:37:30.578Z,9.20
2022-11-21T16:40:37.598Z,10.50
2022-11-21T16:43:44.609Z,9.20
2022-11-21T16:46:52.154Z,8.50
2022-11-21T16:49:59.208Z,9.00
2022-11-21T16:53:06.249Z,8.70
2022-11-21T16:56:13.677Z,8.70
2022-11-21T16:59:20.410Z,8.30
2022-11-21T17:02:27.820Z,8.70
2022-11-21T17:05:34.908Z,8.80
2022-11-21T17:08:41.619Z,8.80
2022-11-21T17:11:49.091Z,9.70
2022-11-21T17:14:55.969Z,9.50
2022-11-21T17:18:02.940Z,8.40
2022-11-21T17:21:10.024Z,9.10
2022-11-21T17:24:17.220Z,9.00
2022-11-21T17:27:24.250Z,8.80
2022-11-21T17:30:31.867Z,8.60
2022-11-21T17:33:39.743Z,9.10
2022-11-21T17:36:46.806Z,9.10
2022-11-21T17:39:54.401Z,8.40
2022-11-21T17:43:01.189Z,8.40
2022-11-21T17:46:10.127Z,7.80
2022-11-21T17:49:16.929Z,8.30
2022-11-21T17:52:24.531Z,7.90
2022-11-21T17:55:31.677Z,7.70
2022-11-21T17:58:39.183Z,8.00
2022-11-21T18:01:46.759Z,7.90
2022-11-21T18:04:54.174Z,8.80
2022-11-21T18:08:01.314Z,8.30
2022-11-21T18:11:08.625Z,8.10
2022-11-21T18:14:15.891Z,8.30
2022-11-21T18:17:22.867Z,8.40
2022-11-21T18:20:30.164Z,9.20
2022-11-21T18:23:37.204Z,8.90
2022-11-21T18:26:44.695Z,8.60
2022-11-21T18:29:51.751Z,8.70
2022-11-21T18:32:58.776Z,8.20
2022-11-21T18:36:05.934Z,8.70
2022-11-21T18:39:15.278Z,9.10
2022-11-21T18:42:22.878Z,8.80
2022-11-21T18:45:30.507Z,9.40
2022-11-21T18:49:00.749Z,9.90
2022-11-21T18:51:42.223Z,8.90
2022-11-21T18:54:49.698Z,9.70
2022-11-21T18:57:56.518Z,9.50
2022-11-21T19:01:04.074Z,9.40
2022-11-21T19:04:11.330Z,10.20
2022-11-21T19:07:18.421Z,9.60
2022-11-21T19:10:42.628Z,10.50
2022-11-21T19:13:30.367Z,10.30
2022-11-21T19:16:37.511Z,10.60
2022-11-21T19:19:44.530Z,11.80
2022-11-21T19:22:51.541Z,11.60
2022-11-21T19:25:58.581Z,12.10
2022-11-21T19:29:06.060Z,12.10
2022-11-21T19:32:13.041Z,12.20
2022-11-21T19:35:20.070Z,12.80
2022-11-21T19:38:27.132Z,12.30
2022-11-21T19:41:34.480Z,12.00
2022-11-21T19:44:41.565Z,13.00
2022-11-21T19:47:48.612Z,13.60
2022-11-21T19:50:58.410Z,14.20
2022-11-21T19:54:05.764Z,14.70
2022-11-21T19:57:14.191Z,14.90
2022-11-21T20:00:21.742Z,14.90
2022-11-21T20:03:28.545Z,14.90
2022-11-21T20:06:36.106Z,14.80
2022-11-21T20:09:43.521Z,15.60
2022-11-21T20:12:50.324Z,15.80
2022-11-21T20:15:57.663Z,16.10
2022-11-21T20:19:05.237Z,16.70
2022-11-21T20:22:12.001Z,15.60
2022-11-21T20:25:19.243Z,16.30
2022-11-21T20:28:26.443Z,18.30
2022-11-21T20:31:33.686Z,17.70
2022-11-21T20:34:41.005Z,18.40
2022-11-21T20:37:48.085Z,19.10
2022-11-21T20:40:55.126Z,18.60
2022-11-21T20:44:53.124Z,17.80
2022-11-21T20:47:06.825Z,19.80
2022-11-21T20:50:25.906Z,20.30
2022-11-21T20:53:50.859Z,26.90
2022-11-21T20:56:23.557Z,22.50
2022-11-21T20:59:31.143Z,22.90
2022-11-21T21:02:38.657Z,23.80
2022-11-21T21:05:46.048Z,26.20
2022-11-21T21:08:53.179Z,27.00
2022-11-21T21:12:00.680Z,27.60
2022-11-21T21:15:08.047Z,28.30
2022-11-21T21:18:14.749Z,30.10
2022-11-21T21:21:21.929Z,30.70
2022-11-21T21:24:29.130Z,30.70
2022-11-21T21:27:35.903Z,31.10
2022-11-21T21:30:43.759Z,31.80
2022-11-21T21:33:50.690Z,32.00
2022-11-21T21:36:58.020Z,31.50
2022-11-21T21:40:05.679Z,32.10
2022-11-21T21:43:12.509Z,31.70
2022-11-21T21:46:19.918Z,32.90
2022-11-21T21:49:27.481Z,33.00
2022-11-21T21:52:34.231Z,34.90
2022-11-21T21:55:41.469Z,31.70
2022-11-21T21:58:48.561Z,36.20
2022-11-21T22:01:55.800Z,34.80
2022-11-21T22:05:03.452Z,32.10
2022-11-21T22:08:10.796Z,34.40
2022-11-21T22:11:17.992Z,35.90
2022-11-21T22:14:25.486Z,33.10
2022-11-21T22:17:32.688Z,33.20
2022-11-21T22:20:39.744Z,34.00
2022-11-21T22:24:17.244Z,35.40
2022-11-21T22:26:52.244Z,31.90
2022-11-21T22:30:00.325Z,33.90
2022-11-21T22:33:07.582Z,34.50
2022-11-21T22:36:14.715Z,31.90
2022-11-21T22:39:21.745Z,33.90
2022-11-21T22:42:28.745Z,33.20
2022-11-21T22:45:36.405Z,34.00
2022-11-21T22:48:43.137Z,34.20
2022-11-21T22:51:50.596Z,32.90
2022-11-21T22:54:58.161Z,32.00
2022-11-21T22:58:04.857Z,33.30
2022-11-21T23:01:11.996Z,38.50
2022-11-21T23:04:19.430Z,32.80
2022-11-21T23:07:26.174Z,33.50
2022-11-21T23:10:33.591Z,35.60
2022-11-21T23:13:40.352Z,33.20
2022-11-21T23:16:48.009Z,32.70
2022-11-21T23:19:55.549Z,34.30
2022-11-21T23:23:02.289Z,32.40
2022-11-21T23:26:09.879Z,29.90
2022-11-21T23:29:17.410Z,31.50
2022-11-21T23:32:24.203Z,32.00
2022-11-21T23:35:31.732Z,31.40
2022-11-21T23:38:39.278Z,30.30
2022-11-21T23:41:46.030Z,28.90
2022-11-21T23:44:53.531Z,31.20
2022-11-21T23:48:00.801Z,33.00
2022-11-21T23:51:07.992Z,31.10
2022-11-21T23:54:15.432Z,30.40
2022-11-21T23:57:22.481Z,30.90
